sensor_id;sensor_type;location;lat;lon;timestamp;P1;durP1;ratioP1;P2;durP2;ratioP2
80700;SDS011;71609;42.630;23.380;2023-12-20T00:01:24;9.70;;;5.10;;
80700;SDS011;71609;42.630;23.380;2023-12-20T00:03:50;8.93;;;4.45;;
80700;SDS011;71609;42.630;23.380;2023-12-20T00:06:16;9.88;;;4.68;;
80700;SDS011;71609;42.630;23.380;2023-12-20T00:08:42;9.07;;;4.55;;
80700;SDS011;71609;42.630;23.380;2023-12-20T00:11:09;9.40;;;5.05;;
80700;SDS011;71609;42.630;23.380;2023-12-20T00:13:34;9.60;;;4.60;;
80700;SDS011;71609;42.630;23.380;2023-12-20T00:16:00;10.85;;;4.65;;
80700;SDS011;71609;42.630;23.380;2023-12-20T00:18:26;9.10;;;4.70;;
80700;SDS011;71609;42.630;23.380;2023-12-20T00:20:52;9.35;;;4.90;;
80700;SDS011;71609;42.630;23.380;2023-12-20T00:23:17;8.50;;;4.60;;
80700;SDS011;71609;42.630;23.380;2023-12-20T00:25:43;12.85;;;4.75;;
80700;SDS011;71609;42.630;23.380;2023-12-20T00:28:09;9.25;;;4.55;;
80700;SDS011;71609;42.630;23.380;2023-12-20T00:30:34;11.35;;;4.70;;
80700;SDS011;71609;42.630;23.380;2023-12-20T00:33:01;10.15;;;5.43;;
80700;SDS011;71609;42.630;23.380;2023-12-20T00:35:27;9.23;;;4.63;;
80700;SDS011;71609;42.630;23.380;2023-12-20T00:37:53;7.85;;;4.13;;
80700;SDS011;71609;42.630;23.380;2023-12-20T00:40:19;10.98;;;5.03;;
80700;SDS011;71609;42.630;23.380;2023-12-20T00:42:45;9.63;;;4.70;;
80700;SDS011;71609;42.630;23.380;2023-12-20T00:45:12;8.15;;;4.47;;
80700;SDS011;71609;42.630;23.380;2023-12-20T00:47:38;9.52;;;4.32;;
80700;SDS011;71609;42.630;23.380;2023-12-20T00:50:03;8.07;;;4.25;;
80700;SDS011;71609;42.630;23.380;2023-12-20T00:52:30;8.68;;;3.95;;
80700;SDS011;71609;42.630;23.380;2023-12-20T00:54:55;8.23;;;4.50;;
80700;SDS011;71609;42.630;23.380;2023-12-20T00:57:21;9.07;;;4.70;;
80700;SDS011;71609;42.630;23.380;2023-12-20T00:59:47;8.43;;;4.38;;
80700;SDS011;71609;42.630;23.380;2023-12-20T01:02:13;8.32;;;4.25;;
80700;SDS011;71609;42.630;23.380;2023-12-20T01:04:38;9.30;;;4.43;;
80700;SDS011;71609;42.630;23.380;2023-12-20T01:07:04;11.07;;;4.57;;
80700;SDS011;71609;42.630;23.380;2023-12-20T01:09:30;8.27;;;4.57;;
80700;SDS011;71609;42.630;23.380;2023-12-20T01:11:55;9.80;;;4.03;;
80700;SDS011;71609;42.630;23.380;2023-12-20T01:14:21;8.05;;;4.25;;
80700;SDS011;71609;42.630;23.380;2023-12-20T01:16:47;7.30;;;3.90;;
80700;SDS011;71609;42.630;23.380;2023-12-20T01:19:13;8.27;;;4.22;;
80700;SDS011;71609;42.630;23.380;2023-12-20T01:21:39;7.88;;;4.30;;
80700;SDS011;71609;42.630;23.380;2023-12-20T01:24:05;8.63;;;3.97;;
80700;SDS011;71609;42.630;23.380;2023-12-20T01:26:31;7.82;;;4.40;;
80700;SDS011;71609;42.630;23.380;2023-12-20T01:28:57;7.45;;;4.03;;
80700;SDS011;71609;42.630;23.380;2023-12-20T01:31:22;8.50;;;4.03;;
80700;SDS011;71609;42.630;23.380;2023-12-20T01:33:48;9.75;;;4.43;;
80700;SDS011;71609;42.630;23.380;2023-12-20T01:36:14;8.57;;;4.15;;
80700;SDS011;71609;42.630;23.380;2023-12-20T01:38:40;9.10;;;4.30;;
80700;SDS011;71609;42.630;23.380;2023-12-20T01:41:05;8.30;;;4.22;;
80700;SDS011;71609;42.630;23.380;2023-12-20T01:43:31;8.68;;;3.70;;
80700;SDS011;71609;42.630;23.380;2023-12-20T01:45:57;7.93;;;3.75;;
80700;SDS011;71609;42.630;23.380;2023-12-20T01:48:23;7.75;;;4.05;;
80700;SDS011;71609;42.630;23.380;2023-12-20T01:50:51;8.68;;;4.00;;
80700;SDS011;71609;42.630;23.380;2023-12-20T01:53:17;8.23;;;4.00;;
80700;SDS011;71609;42.630;23.380;2023-12-20T01:55:46;7.78;;;3.85;;
80700;SDS011;71609;42.630;23.380;2023-12-20T01:58:13;7.93;;;3.95;;
80700;SDS011;71609;42.630;23.380;2023-12-20T02:00:40;6.88;;;3.80;;
80700;SDS011;71609;42.630;23.380;2023-12-20T02:03:06;8.93;;;4.45;;
80700;SDS011;71609;42.630;23.380;2023-12-20T02:05:33;6.43;;;3.53;;
80700;SDS011;71609;42.630;23.380;2023-12-20T02:08:00;8.40;;;3.70;;
80700;SDS011;71609;42.630;23.380;2023-12-20T02:10:26;7.78;;;3.72;;
80700;SDS011;71609;42.630;23.380;2023-12-20T02:12:52;8.35;;;4.03;;
80700;SDS011;71609;42.630;23.380;2023-12-20T02:15:18;8.20;;;4.00;;
80700;SDS011;71609;42.630;23.380;2023-12-20T02:17:45;7.68;;;4.30;;
80700;SDS011;71609;42.630;23.380;2023-12-20T02:20:13;8.13;;;4.05;;
80700;SDS011;71609;42.630;23.380;2023-12-20T02:22:39;7.22;;;3.88;;
80700;SDS011;71609;42.630;23.380;2023-12-20T02:25:04;6.75;;;3.78;;
80700;SDS011;71609;42.630;23.380;2023-12-20T02:27:30;8.40;;;4.03;;
80700;SDS011;71609;42.630;23.380;2023-12-20T02:29:56;8.35;;;4.28;;
80700;SDS011;71609;42.630;23.380;2023-12-20T02:32:22;8.57;;;3.83;;
80700;SDS011;71609;42.630;23.380;2023-12-20T02:34:51;7.22;;;3.60;;
80700;SDS011;71609;42.630;23.380;2023-12-20T02:37:16;8.02;;;3.92;;
80700;SDS011;71609;42.630;23.380;2023-12-20T02:39:42;7.20;;;3.83;;
80700;SDS011;71609;42.630;23.380;2023-12-20T02:42:08;7.20;;;3.30;;
80700;SDS011;71609;42.630;23.380;2023-12-20T02:44:34;7.85;;;4.03;;
80700;SDS011;71609;42.630;23.380;2023-12-20T02:46:59;7.03;;;3.83;;
80700;SDS011;71609;42.630;23.380;2023-12-20T02:49:25;7.70;;;3.67;;
80700;SDS011;71609;42.630;23.380;2023-12-20T02:51:51;8.32;;;3.60;;
80700;SDS011;71609;42.630;23.380;2023-12-20T02:54:17;8.07;;;4.15;;
80700;SDS011;71609;42.630;23.380;2023-12-20T02:56:42;6.68;;;3.55;;
80700;SDS011;71609;42.630;23.380;2023-12-20T02:59:08;8.52;;;3.53;;
80700;SDS011;71609;42.630;23.380;2023-12-20T03:01:34;7.43;;;3.80;;
80700;SDS011;71609;42.630;23.380;2023-12-20T03:04:00;7.55;;;3.72;;
80700;SDS011;71609;42.630;23.380;2023-12-20T03:06:26;8.07;;;3.85;;
80700;SDS011;71609;42.630;23.380;2023-12-20T03:08:52;8.20;;;3.60;;
80700;SDS011;71609;42.630;23.380;2023-12-20T03:11:18;6.75;;;3.40;;
80700;SDS011;71609;42.630;23.380;2023-12-20T03:13:43;7.93;;;3.60;;
80700;SDS011;71609;42.630;23.380;2023-12-20T03:16:10;6.70;;;3.45;;
80700;SDS011;71609;42.630;23.380;2023-12-20T03:18:36;6.82;;;3.50;;
80700;SDS011;71609;42.630;23.380;2023-12-20T03:21:02;8.65;;;4.15;;
80700;SDS011;71609;42.630;23.380;2023-12-20T03:23:29;8.13;;;3.83;;
80700;SDS011;71609;42.630;23.380;2023-12-20T03:25:56;6.68;;;3.28;;
80700;SDS011;71609;42.630;23.380;2023-12-20T03:28:22;7.82;;;3.45;;
80700;SDS011;71609;42.630;23.380;2023-12-20T03:30:48;7.30;;;3.50;;
80700;SDS011;71609;42.630;23.380;2023-12-20T03:33:14;6.47;;;3.35;;
80700;SDS011;71609;42.630;23.380;2023-12-20T03:35:40;6.97;;;3.38;;
80700;SDS011;71609;42.630;23.380;2023-12-20T03:38:05;7.32;;;3.58;;
80700;SDS011;71609;42.630;23.380;2023-12-20T03:40:31;6.78;;;3.53;;
80700;SDS011;71609;42.630;23.380;2023-12-20T03:42:57;6.75;;;3.55;;
80700;SDS011;71609;42.630;23.380;2023-12-20T03:45:23;6.95;;;3.38;;
80700;SDS011;71609;42.630;23.380;2023-12-20T03:47:48;7.88;;;3.60;;
80700;SDS011;71609;42.630;23.380;2023-12-20T03:50:14;8.27;;;4.22;;
80700;SDS011;71609;42.630;23.380;2023-12-20T03:52:40;7.18;;;3.85;;
80700;SDS011;71609;42.630;23.380;2023-12-20T03:55:06;8.90;;;4.13;;
80700;SDS011;71609;42.630;23.380;2023-12-20T03:57:32;7.65;;;3.83;;
80700;SDS011;71609;42.630;23.380;2023-12-20T03:59:58;7.97;;;3.45;;
80700;SDS011;71609;42.630;23.380;2023-12-20T04:02:24;7.75;;;3.90;;
80700;SDS011;71609;42.630;23.380;2023-12-20T04:04:50;6.90;;;3.50;;
80700;SDS011;71609;42.630;23.380;2023-12-20T04:07:18;7.57;;;3.95;;
80700;SDS011;71609;42.630;23.380;2023-12-20T04:09:43;7.53;;;3.72;;
80700;SDS011;71609;42.630;23.380;2023-12-20T04:12:09;6.85;;;3.35;;
80700;SDS011;71609;42.630;23.380;2023-12-20T04:14:35;7.88;;;4.00;;
80700;SDS011;71609;42.630;23.380;2023-12-20T04:17:00;7.93;;;3.85;;
80700;SDS011;71609;42.630;23.380;2023-12-20T04:19:26;6.88;;;3.58;;
80700;SDS011;71609;42.630;23.380;2023-12-20T04:21:52;7.20;;;3.85;;
80700;SDS011;71609;42.630;23.380;2023-12-20T04:24:18;8.38;;;3.78;;
80700;SDS011;71609;42.630;23.380;2023-12-20T04:26:43;8.25;;;3.85;;
80700;SDS011;71609;42.630;23.380;2023-12-20T04:29:09;7.45;;;3.47;;
80700;SDS011;71609;42.630;23.380;2023-12-20T04:31:35;8.07;;;3.50;;
80700;SDS011;71609;42.630;23.380;2023-12-20T04:34:01;7.63;;;3.42;;
80700;SDS011;71609;42.630;23.380;2023-12-20T04:36:26;7.13;;;3.78;;
80700;SDS011;71609;42.630;23.380;2023-12-20T04:38:54;8.80;;;3.78;;
80700;SDS011;71609;42.630;23.380;2023-12-20T04:41:20;7.80;;;3.42;;
80700;SDS011;71609;42.630;23.380;2023-12-20T04:43:46;8.85;;;4.00;;
80700;SDS011;71609;42.630;23.380;2023-12-20T04:46:12;7.18;;;3.72;;
80700;SDS011;71609;42.630;23.380;2023-12-20T04:48:37;7.22;;;3.80;;
80700;SDS011;71609;42.630;23.380;2023-12-20T04:51:03;6.95;;;3.53;;
80700;SDS011;71609;42.630;23.380;2023-12-20T04:53:29;7.13;;;3.67;;
80700;SDS011;71609;42.630;23.380;2023-12-20T04:55:55;7.30;;;3.72;;
80700;SDS011;71609;42.630;23.380;2023-12-20T04:58:21;7.20;;;3.40;;
80700;SDS011;71609;42.630;23.380;2023-12-20T05:00:46;7.38;;;3.47;;
80700;SDS011;71609;42.630;23.380;2023-12-20T05:03:12;6.85;;;3.70;;
80700;SDS011;71609;42.630;23.380;2023-12-20T05:05:38;7.50;;;3.53;;
80700;SDS011;71609;42.630;23.380;2023-12-20T05:08:04;7.35;;;3.53;;
80700;SDS011;71609;42.630;23.380;2023-12-20T05:10:30;7.57;;;3.58;;
80700;SDS011;71609;42.630;23.380;2023-12-20T05:12:55;9.27;;;4.30;;
80700;SDS011;71609;42.630;23.380;2023-12-20T05:15:21;12.43;;;6.35;;
80700;SDS011;71609;42.630;23.380;2023-12-20T05:17:47;11.32;;;6.10;;
80700;SDS011;71609;42.630;23.380;2023-12-20T05:20:13;11.93;;;6.05;;
80700;SDS011;71609;42.630;23.380;2023-12-20T05:22:41;13.07;;;6.65;;
80700;SDS011;71609;42.630;23.380;2023-12-20T05:25:06;12.55;;;6.65;;
80700;SDS011;71609;42.630;23.380;2023-12-20T05:27:32;12.85;;;6.70;;
80700;SDS011;71609;42.630;23.380;2023-12-20T05:29:58;11.88;;;6.43;;
80700;SDS011;71609;42.630;23.380;2023-12-20T05:32:24;12.05;;;6.82;;
80700;SDS011;71609;42.630;23.380;2023-12-20T05:34:50;13.80;;;7.80;;
80700;SDS011;71609;42.630;23.380;2023-12-20T05:37:16;13.05;;;7.05;;
80700;SDS011;71609;42.630;23.380;2023-12-20T05:39:41;13.88;;;7.25;;
80700;SDS011;71609;42.630;23.380;2023-12-20T05:42:07;15.13;;;7.18;;
80700;SDS011;71609;42.630;23.380;2023-12-20T05:44:33;21.33;;;8.63;;
80700;SDS011;71609;42.630;23.380;2023-12-20T05:46:58;16.15;;;8.52;;
80700;SDS011;71609;42.630;23.380;2023-12-20T05:49:24;17.55;;;9.15;;
80700;SDS011;71609;42.630;23.380;2023-12-20T05:51:50;19.13;;;9.45;;
80700;SDS011;71609;42.630;23.380;2023-12-20T05:54:16;16.38;;;8.85;;
80700;SDS011;71609;42.630;23.380;2023-12-20T05:56:42;18.55;;;9.88;;
80700;SDS011;71609;42.630;23.380;2023-12-20T05:59:07;20.42;;;9.77;;
80700;SDS011;71609;42.630;23.380;2023-12-20T06:01:33;24.33;;;10.60;;
80700;SDS011;71609;42.630;23.380;2023-12-20T06:03:59;16.08;;;8.95;;
80700;SDS011;71609;42.630;23.380;2023-12-20T06:06:24;19.10;;;9.55;;
80700;SDS011;71609;42.630;23.380;2023-12-20T06:08:50;18.88;;;10.00;;
80700;SDS011;71609;42.630;23.380;2023-12-20T06:11:16;19.10;;;9.60;;
80700;SDS011;71609;42.630;23.380;2023-12-20T06:13:42;19.35;;;10.02;;
80700;SDS011;71609;42.630;23.380;2023-12-20T06:16:08;16.25;;;7.85;;
80700;SDS011;71609;42.630;23.380;2023-12-20T06:18:33;15.85;;;8.43;;
80700;SDS011;71609;42.630;23.380;2023-12-20T06:20:59;16.75;;;8.82;;
80700;SDS011;71609;42.630;23.380;2023-12-20T06:23:25;17.85;;;9.98;;
80700;SDS011;71609;42.630;23.380;2023-12-20T06:25:52;18.80;;;9.38;;
80700;SDS011;71609;42.630;23.380;2023-12-20T06:28:18;16.90;;;8.60;;
80700;SDS011;71609;42.630;23.380;2023-12-20T06:30:43;17.63;;;8.82;;
80700;SDS011;71609;42.630;23.380;2023-12-20T06:33:10;16.67;;;9.07;;
80700;SDS011;71609;42.630;23.380;2023-12-20T06:35:36;22.60;;;10.75;;
80700;SDS011;71609;42.630;23.380;2023-12-20T06:38:02;24.05;;;10.95;;
80700;SDS011;71609;42.630;23.380;2023-12-20T06:40:28;20.52;;;9.50;;
80700;SDS011;71609;42.630;23.380;2023-12-20T06:42:54;21.98;;;9.77;;
80700;SDS011;71609;42.630;23.380;2023-12-20T06:45:20;16.30;;;9.15;;
80700;SDS011;71609;42.630;23.380;2023-12-20T06:47:46;19.55;;;10.23;;
80700;SDS011;71609;42.630;23.380;2023-12-20T06:50:11;25.10;;;9.98;;
80700;SDS011;71609;42.630;23.380;2023-12-20T06:52:37;17.73;;;9.35;;
80700;SDS011;71609;42.630;23.380;2023-12-20T06:55:03;18.83;;;9.35;;
80700;SDS011;71609;42.630;23.380;2023-12-20T06:57:29;17.73;;;9.48;;
80700;SDS011;71609;42.630;23.380;2023-12-20T06:59:55;18.20;;;9.95;;
80700;SDS011;71609;42.630;23.380;2023-12-20T07:02:21;16.75;;;8.90;;
80700;SDS011;71609;42.630;23.380;2023-12-20T07:04:47;16.55;;;8.65;;
80700;SDS011;71609;42.630;23.380;2023-12-20T07:07:13;16.55;;;9.02;;
80700;SDS011;71609;42.630;23.380;2023-12-20T07:09:39;18.30;;;8.82;;
80700;SDS011;71609;42.630;23.380;2023-12-20T07:12:07;16.17;;;9.00;;
80700;SDS011;71609;42.630;23.380;2023-12-20T07:14:34;15.88;;;7.68;;
80700;SDS011;71609;42.630;23.380;2023-12-20T07:17:00;16.02;;;8.40;;
80700;SDS011;71609;42.630;23.380;2023-12-20T07:19:25;15.30;;;7.93;;
80700;SDS011;71609;42.630;23.380;2023-12-20T07:21:51;21.63;;;8.35;;
80700;SDS011;71609;42.630;23.380;2023-12-20T07:24:18;16.52;;;8.27;;
80700;SDS011;71609;42.630;23.380;2023-12-20T07:26:43;20.02;;;8.43;;
80700;SDS011;71609;42.630;23.380;2023-12-20T07:29:09;17.13;;;7.65;;
80700;SDS011;71609;42.630;23.380;2023-12-20T07:31:35;20.45;;;8.25;;
80700;SDS011;71609;42.630;23.380;2023-12-20T07:34:01;15.30;;;7.03;;
80700;SDS011;71609;42.630;23.380;2023-12-20T07:36:26;14.77;;;7.25;;
80700;SDS011;71609;42.630;23.380;2023-12-20T07:38:52;20.90;;;8.10;;
80700;SDS011;71609;42.630;23.380;2023-12-20T07:41:18;19.65;;;7.47;;
80700;SDS011;71609;42.630;23.380;2023-12-20T07:43:46;18.80;;;7.32;;
80700;SDS011;71609;42.630;23.380;2023-12-20T07:46:12;16.10;;;7.75;;
80700;SDS011;71609;42.630;23.380;2023-12-20T07:48:37;31.35;;;8.23;;
80700;SDS011;71609;42.630;23.380;2023-12-20T07:51:04;22.35;;;7.68;;
80700;SDS011;71609;42.630;23.380;2023-12-20T07:53:32;20.00;;;7.70;;
80700;SDS011;71609;42.630;23.380;2023-12-20T07:55:58;21.00;;;7.47;;
80700;SDS011;71609;42.630;23.380;2023-12-20T07:58:24;22.45;;;7.95;;
80700;SDS011;71609;42.630;23.380;2023-12-20T08:00:50;19.45;;;7.82;;
80700;SDS011;71609;42.630;23.380;2023-12-20T08:03:15;21.08;;;8.02;;
80700;SDS011;71609;42.630;23.380;2023-12-20T08:05:41;17.40;;;7.57;;
80700;SDS011;71609;42.630;23.380;2023-12-20T08:08:13;24.42;;;8.20;;
80700;SDS011;71609;42.630;23.380;2023-12-20T08:10:39;19.10;;;8.43;;
80700;SDS011;71609;42.630;23.380;2023-12-20T08:13:05;18.15;;;8.48;;
80700;SDS011;71609;42.630;23.380;2023-12-20T08:15:31;20.60;;;9.30;;
80700;SDS011;71609;42.630;23.380;2023-12-20T08:17:57;27.40;;;9.45;;
80700;SDS011;71609;42.630;23.380;2023-12-20T08:20:23;22.52;;;9.32;;
80700;SDS011;71609;42.630;23.380;2023-12-20T08:22:54;27.15;;;9.05;;
80700;SDS011;71609;42.630;23.380;2023-12-20T08:25:20;24.55;;;8.57;;
80700;SDS011;71609;42.630;23.380;2023-12-20T08:27:46;24.02;;;7.97;;
80700;SDS011;71609;42.630;23.380;2023-12-20T08:30:11;25.17;;;8.65;;
80700;SDS011;71609;42.630;23.380;2023-12-20T08:32:38;21.63;;;8.80;;
80700;SDS011;71609;42.630;23.380;2023-12-20T08:35:04;23.58;;;8.77;;
80700;SDS011;71609;42.630;23.380;2023-12-20T08:37:30;22.27;;;8.85;;
80700;SDS011;71609;42.630;23.380;2023-12-20T08:39:56;25.52;;;8.77;;
80700;SDS011;71609;42.630;23.380;2023-12-20T08:42:22;33.47;;;9.15;;
80700;SDS011;71609;42.630;23.380;2023-12-20T08:44:49;24.48;;;9.90;;
80700;SDS011;71609;42.630;23.380;2023-12-20T08:47:15;26.92;;;11.00;;
80700;SDS011;71609;42.630;23.380;2023-12-20T08:49:42;28.02;;;13.38;;
80700;SDS011;71609;42.630;23.380;2023-12-20T08:52:08;28.45;;;11.90;;
80700;SDS011;71609;42.630;23.380;2023-12-20T08:54:34;25.92;;;12.18;;
80700;SDS011;71609;42.630;23.380;2023-12-20T08:57:00;24.65;;;12.63;;
80700;SDS011;71609;42.630;23.380;2023-12-20T08:59:26;26.02;;;11.60;;
80700;SDS011;71609;42.630;23.380;2023-12-20T09:01:51;26.02;;;11.43;;
80700;SDS011;71609;42.630;23.380;2023-12-20T09:04:19;20.75;;;9.85;;
80700;SDS011;71609;42.630;23.380;2023-12-20T09:06:45;22.38;;;10.68;;
80700;SDS011;71609;42.630;23.380;2023-12-20T09:09:11;22.55;;;10.00;;
80700;SDS011;71609;42.630;23.380;2023-12-20T09:11:38;26.15;;;11.18;;
80700;SDS011;71609;42.630;23.380;2023-12-20T09:14:04;31.42;;;10.27;;
80700;SDS011;71609;42.630;23.380;2023-12-20T09:16:30;24.38;;;10.85;;
80700;SDS011;71609;42.630;23.380;2023-12-20T09:18:59;25.38;;;11.07;;
80700;SDS011;71609;42.630;23.380;2023-12-20T09:21:25;19.92;;;10.05;;
80700;SDS011;71609;42.630;23.380;2023-12-20T09:23:51;24.40;;;10.40;;
80700;SDS011;71609;42.630;23.380;2023-12-20T09:26:16;21.77;;;10.45;;
80700;SDS011;71609;42.630;23.380;2023-12-20T09:28:42;23.70;;;9.75;;
80700;SDS011;71609;42.630;23.380;2023-12-20T09:31:09;23.15;;;10.27;;
80700;SDS011;71609;42.630;23.380;2023-12-20T09:33:34;25.70;;;9.65;;
80700;SDS011;71609;42.630;23.380;2023-12-20T09:36:00;32.85;;;11.13;;
80700;SDS011;71609;42.630;23.380;2023-12-20T09:38:26;19.85;;;9.20;;
80700;SDS011;71609;42.630;23.380;2023-12-20T09:40:52;25.42;;;10.23;;
80700;SDS011;71609;42.630;23.380;2023-12-20T09:43:19;22.20;;;11.05;;
80700;SDS011;71609;42.630;23.380;2023-12-20T09:45:46;25.48;;;10.00;;
80700;SDS011;71609;42.630;23.380;2023-12-20T09:48:13;18.33;;;9.02;;
80700;SDS011;71609;42.630;23.380;2023-12-20T09:50:42;23.63;;;9.90;;
80700;SDS011;71609;42.630;23.380;2023-12-20T09:53:09;30.63;;;10.77;;
80700;SDS011;71609;42.630;23.380;2023-12-20T09:55:39;23.27;;;9.88;;
80700;SDS011;71609;42.630;23.380;2023-12-20T09:58:06;20.80;;;9.70;;
80700;SDS011;71609;42.630;23.380;2023-12-20T10:00:34;20.75;;;9.05;;
80700;SDS011;71609;42.630;23.380;2023-12-20T10:03:00;18.73;;;9.70;;
80700;SDS011;71609;42.630;23.380;2023-12-20T10:05:33;20.45;;;9.18;;
80700;SDS011;71609;42.630;23.380;2023-12-20T10:07:59;22.42;;;9.80;;
80700;SDS011;71609;42.630;23.380;2023-12-20T10:10:26;26.13;;;9.57;;
80700;SDS011;71609;42.630;23.380;2023-12-20T10:13:02;24.70;;;9.32;;
80700;SDS011;71609;42.630;23.380;2023-12-20T10:15:28;23.33;;;9.82;;
80700;SDS011;71609;42.630;23.380;2023-12-20T10:17:54;27.63;;;9.63;;
80700;SDS011;71609;42.630;23.380;2023-12-20T10:20:20;25.10;;;10.15;;
80700;SDS011;71609;42.630;23.380;2023-12-20T10:22:46;24.75;;;9.40;;
80700;SDS011;71609;42.630;23.380;2023-12-20T10:25:12;22.10;;;9.48;;
80700;SDS011;71609;42.630;23.380;2023-12-20T10:27:38;25.58;;;9.57;;
80700;SDS011;71609;42.630;23.380;2023-12-20T10:30:04;21.42;;;9.32;;
80700;SDS011;71609;42.630;23.380;2023-12-20T10:32:30;26.90;;;9.73;;
80700;SDS011;71609;42.630;23.380;2023-12-20T10:34:56;25.08;;;10.00;;
80700;SDS011;71609;42.630;23.380;2023-12-20T10:37:24;35.17;;;11.63;;
80700;SDS011;71609;42.630;23.380;2023-12-20T10:39:50;30.85;;;13.18;;
80700;SDS011;71609;42.630;23.380;2023-12-20T10:42:24;28.48;;;13.02;;
80700;SDS011;71609;42.630;23.380;2023-12-20T10:44:51;24.05;;;11.02;;
80700;SDS011;71609;42.630;23.380;2023-12-20T10:47:19;29.85;;;10.80;;
80700;SDS011;71609;42.630;23.380;2023-12-20T10:49:46;38.25;;;15.60;;
80700;SDS011;71609;42.630;23.380;2023-12-20T10:52:12;27.98;;;13.93;;
80700;SDS011;71609;42.630;23.380;2023-12-20T10:54:41;27.38;;;14.52;;
80700;SDS011;71609;42.630;23.380;2023-12-20T10:57:07;24.92;;;13.07;;
80700;SDS011;71609;42.630;23.380;2023-12-20T10:59:37;31.95;;;13.82;;
80700;SDS011;71609;42.630;23.380;2023-12-20T11:02:06;20.67;;;11.57;;
80700;SDS011;71609;42.630;23.380;2023-12-20T11:04:50;26.60;;;13.30;;
80700;SDS011;71609;42.630;23.380;2023-12-20T11:07:23;31.80;;;14.60;;
80700;SDS011;71609;42.630;23.380;2023-12-20T11:09:58;31.33;;;15.93;;
80700;SDS011;71609;42.630;23.380;2023-12-20T11:12:32;29.63;;;13.52;;
80700;SDS011;71609;42.630;23.380;2023-12-20T11:15:06;25.25;;;13.63;;
80700;SDS011;71609;42.630;23.380;2023-12-20T11:17:33;30.30;;;14.13;;
80700;SDS011;71609;42.630;23.380;2023-12-20T11:22:35;26.58;;;13.20;;
80700;SDS011;71609;42.630;23.380;2023-12-20T11:25:11;27.38;;;13.63;;
80700;SDS011;71609;42.630;23.380;2023-12-20T11:27:40;25.27;;;13.43;;
80700;SDS011;71609;42.630;23.380;2023-12-20T11:30:07;25.52;;;12.77;;
80700;SDS011;71609;42.630;23.380;2023-12-20T11:32:35;29.27;;;13.88;;
80700;SDS011;71609;42.630;23.380;2023-12-20T11:37:37;24.83;;;12.32;;
80700;SDS011;71609;42.630;23.380;2023-12-20T11:40:08;28.90;;;14.20;;
80700;SDS011;71609;42.630;23.380;2023-12-20T11:42:48;25.30;;;12.55;;
80700;SDS011;71609;42.630;23.380;2023-12-20T11:45:16;29.35;;;12.30;;
80700;SDS011;71609;42.630;23.380;2023-12-20T11:47:47;25.55;;;13.02;;
80700;SDS011;71609;42.630;23.380;2023-12-20T11:50:18;27.38;;;13.25;;
80700;SDS011;71609;42.630;23.380;2023-12-20T11:52:45;20.38;;;11.05;;
80700;SDS011;71609;42.630;23.380;2023-12-20T11:55:11;21.60;;;12.18;;
80700;SDS011;71609;42.630;23.380;2023-12-20T11:57:37;25.23;;;12.18;;
80700;SDS011;71609;42.630;23.380;2023-12-20T12:00:03;25.00;;;12.10;;
80700;SDS011;71609;42.630;23.380;2023-12-20T12:02:30;24.38;;;12.18;;
80700;SDS011;71609;42.630;23.380;2023-12-20T12:04:56;30.85;;;12.60;;
80700;SDS011;71609;42.630;23.380;2023-12-20T12:07:23;24.08;;;11.90;;
80700;SDS011;71609;42.630;23.380;2023-12-20T12:09:49;21.63;;;11.48;;
80700;SDS011;71609;42.630;23.380;2023-12-20T12:12:15;21.42;;;12.02;;
80700;SDS011;71609;42.630;23.380;2023-12-20T12:14:42;23.80;;;13.02;;
80700;SDS011;71609;42.630;23.380;2023-12-20T12:17:10;29.42;;;13.60;;
80700;SDS011;71609;42.630;23.380;2023-12-20T12:19:40;24.30;;;13.65;;
80700;SDS011;71609;42.630;23.380;2023-12-20T12:22:11;27.10;;;14.35;;
80700;SDS011;71609;42.630;23.380;2023-12-20T12:24:44;26.48;;;13.10;;
80700;SDS011;71609;42.630;23.380;2023-12-20T12:27:12;27.15;;;14.73;;
80700;SDS011;71609;42.630;23.380;2023-12-20T12:29:39;28.40;;;14.40;;
80700;SDS011;71609;42.630;23.380;2023-12-20T12:32:05;25.10;;;13.48;;
80700;SDS011;71609;42.630;23.380;2023-12-20T12:34:33;22.02;;;12.13;;
80700;SDS011;71609;42.630;23.380;2023-12-20T12:36:59;24.13;;;12.05;;
80700;SDS011;71609;42.630;23.380;2023-12-20T12:39:25;28.42;;;11.32;;
80700;SDS011;71609;42.630;23.380;2023-12-20T12:41:51;22.05;;;11.88;;
80700;SDS011;71609;42.630;23.380;2023-12-20T12:44:18;21.63;;;11.68;;
80700;SDS011;71609;42.630;23.380;2023-12-20T12:46:44;22.58;;;11.07;;
80700;SDS011;71609;42.630;23.380;2023-12-20T12:49:11;21.17;;;11.50;;
80700;SDS011;71609;42.630;23.380;2023-12-20T12:51:36;23.20;;;11.68;;
80700;SDS011;71609;42.630;23.380;2023-12-20T12:54:02;19.15;;;10.63;;
80700;SDS011;71609;42.630;23.380;2023-12-20T12:56:29;23.25;;;10.55;;
80700;SDS011;71609;42.630;23.380;2023-12-20T12:58:55;19.17;;;10.73;;
80700;SDS011;71609;42.630;23.380;2023-12-20T13:01:21;19.60;;;10.45;;
80700;SDS011;71609;42.630;23.380;2023-12-20T13:03:47;19.85;;;10.93;;
80700;SDS011;71609;42.630;23.380;2023-12-20T13:06:13;25.52;;;11.85;;
80700;SDS011;71609;42.630;23.380;2023-12-20T13:08:38;18.13;;;10.88;;
80700;SDS011;71609;42.630;23.380;2023-12-20T13:11:04;21.17;;;10.52;;
80700;SDS011;71609;42.630;23.380;2023-12-20T13:13:30;23.00;;;10.90;;
80700;SDS011;71609;42.630;23.380;2023-12-20T13:15:56;23.05;;;11.63;;
80700;SDS011;71609;42.630;23.380;2023-12-20T13:18:22;27.58;;;10.63;;
80700;SDS011;71609;42.630;23.380;2023-12-20T13:20:49;24.30;;;9.93;;
80700;SDS011;71609;42.630;23.380;2023-12-20T13:23:15;22.23;;;11.50;;
80700;SDS011;71609;42.630;23.380;2023-12-20T13:25:43;23.33;;;10.77;;
80700;SDS011;71609;42.630;23.380;2023-12-20T13:28:10;25.67;;;11.10;;
80700;SDS011;71609;42.630;23.380;2023-12-20T13:30:36;21.23;;;11.50;;
80700;SDS011;71609;42.630;23.380;2023-12-20T13:33:02;24.75;;;11.98;;
80700;SDS011;71609;42.630;23.380;2023-12-20T13:35:28;28.55;;;12.02;;
80700;SDS011;71609;42.630;23.380;2023-12-20T13:37:53;25.88;;;11.77;;
80700;SDS011;71609;42.630;23.380;2023-12-20T13:40:19;25.23;;;12.23;;
80700;SDS011;71609;42.630;23.380;2023-12-20T13:42:45;22.95;;;10.93;;
80700;SDS011;71609;42.630;23.380;2023-12-20T13:45:10;21.88;;;12.13;;
80700;SDS011;71609;42.630;23.380;2023-12-20T13:47:36;26.50;;;14.27;;
80700;SDS011;71609;42.630;23.380;2023-12-20T13:50:02;26.35;;;13.60;;
80700;SDS011;71609;42.630;23.380;2023-12-20T13:52:29;26.30;;;13.68;;
80700;SDS011;71609;42.630;23.380;2023-12-20T13:54:55;30.27;;;14.85;;
80700;SDS011;71609;42.630;23.380;2023-12-20T13:57:21;27.13;;;13.80;;
80700;SDS011;71609;42.630;23.380;2023-12-20T13:59:46;42.47;;;15.73;;
80700;SDS011;71609;42.630;23.380;2023-12-20T14:02:13;42.17;;;15.18;;
80700;SDS011;71609;42.630;23.380;2023-12-20T14:04:38;30.40;;;14.23;;
80700;SDS011;71609;42.630;23.380;2023-12-20T14:07:04;28.17;;;13.57;;
80700;SDS011;71609;42.630;23.380;2023-12-20T14:09:32;24.65;;;13.60;;
80700;SDS011;71609;42.630;23.380;2023-12-20T14:11:58;36.83;;;13.85;;
80700;SDS011;71609;42.630;23.380;2023-12-20T14:14:24;37.03;;;13.15;;
80700;SDS011;71609;42.630;23.380;2023-12-20T14:19:25;30.38;;;13.85;;
80700;SDS011;71609;42.630;23.380;2023-12-20T14:21:51;32.80;;;13.88;;
80700;SDS011;71609;42.630;23.380;2023-12-20T14:24:17;31.83;;;13.55;;